Aidablu — IBWX — position and weather

sailwx.info

Track history (hours):
 
Tides and Currents Weather Stations Pressure Air Temp Water Temp Dewpoint Dewpoint Depression Visibility Wind Speed Wind Dir Waves Ship Positions

Aidablu

Last reported at 2014-Jul-22 20:34 UTC. Time now 2014-Jul-23 11:58 UTC.
Position N 40°50' E 013°32'.

Length 252 m; draft 7.3 m.

Type: Ship. MMSI: 247282500.

Date/timePositionNaut miles runAvg speedWind from/ knotsBaromVisibWave heightAir tempDewpointWater temp
2014-Jul-22 20:34N 40°50' E 013°32'1614.4
2014-Jul-22 19:28N 40°41' E 013°48'1213.5
2014-Jul-22 18:34N 40°40' E 014°05'13 0.9
2014-Jul-22 04:33N 40°48' E 014°17'1313.2
2014-Jul-22 03:33N 40°36' E 014°10'1413.7
2014-Jul-22 02:33N 40°23' E 014°05'6113.6
2014-Jul-21 22:04N 39°24' E 013°47'3613.4
2014-Jul-21 19:24N 38°49' E 013°37'1213.5
2014-Jul-21 18:32N 38°37' E 013°34'1313.5
2014-Jul-21 17:34N 38°25' E 013°30'1413.7
2014-Jul-21 16:33N 38°11' E 013°26'5 4.7
2014-Jul-21 15:32N 38°08' E 013°22'0 0.0
2014-Jul-21 14:31N 38°08' E 013°22'0 0.0
2014-Jul-21 13:31N 38°08' E 013°22'0 0.0
2014-Jul-21 12:33N 38°08' E 013°22'0 0.0
2014-Jul-21 11:33N 38°08' E 013°22'0 0.0
2014-Jul-21 10:29N 38°08' E 013°22'0 0.0
2014-Jul-21 09:32N 38°08' E 013°22'0 0.0
2014-Jul-21 08:29N 38°08' E 013°22'0 0.0
2014-Jul-21 07:32N 38°08' E 013°22'0 0.0
2014-Jul-21 06:33N 38°08' E 013°22'6 6.4
2014-Jul-21 05:33N 38°14' E 013°23'6 6.5
2014-Jul-21 04:34N 38°18' E 013°16'5 4.7
2014-Jul-21 03:33N 38°17' E 013°10'5 5.2
2014-Jul-21 02:33N 38°17' E 013°04'1312.7
2014-Jul-21 01:33N 38°16' E 012°47'1313.0
2014-Jul-21 00:32N 38°13' E 012°31'1313.4
2014-Jul-20 23:33N 38°08' E 012°15'4613.4
2014-Jul-20 20:09N 37°42' E 011°28'57 3.0
2014-Jul-20 01:25N 37°26' E 010°20'1311.3
2014-Jul-20 00:13N 37°34' E 010°06'1313.1
2014-Jul-19 23:14N 37°37' E 009°50'5513.4
2014-Jul-19 19:10N 37°53' E 008°44'1013.8
2014-Jul-19 18:25N 37°56' E 008°32'5213.2
2014-Jul-19 14:31N 38°11' E 007°29'1412.9
2014-Jul-19 13:24N 38°15' E 007°12'1213.7
2014-Jul-19 12:33N 38°18' E 006°57'1414.1
2014-Jul-19 11:33N 38°22' E 006°40'1414.2
2014-Jul-19 10:33N 38°26' E 006°23'1414.1
2014-Jul-19 09:33N 38°30' E 006°06'1414.0
2014-Jul-19 08:33N 38°35' E 005°49'1413.7
2014-Jul-19 07:33N 38°39' E 005°32'1413.6
2014-Jul-19 06:33N 38°42' E 005°15'1313.4
2014-Jul-19 05:33N 38°46' E 004°59'1313.4
2014-Jul-19 04:33N 38°50' E 004°42'1313.4
2014-Jul-19 03:33N 38°54' E 004°26'1413.5
2014-Jul-19 02:33N 38°58' E 004°09'1413.6
2014-Jul-19 01:33N 39°02' E 003°52'1313.3
2014-Jul-19 00:33N 39°07' E 003°36'1312.7
2014-Jul-18 23:33N 39°10' E 003°20'1313.5
2014-Jul-18 22:33N 39°13' E 003°04'1413.8
2014-Jul-18 21:33N 39°19' E 002°47'1313.4
2014-Jul-18 20:33N 39°31' E 002°39'2 1.8
2014-Jul-18 19:26N 39°33' E 002°38'0 0.0
2014-Jul-18 18:31N 39°33' E 002°38'0 0.0
2014-Jul-18 17:31N 39°33' E 002°38'0 0.0
2014-Jul-18 16:33N 39°33' E 002°38'0 0.0
2014-Jul-18 15:33N 39°33' E 002°38'0 0.0
2014-Jul-18 14:33N 39°33' E 002°38'0 0.0
2014-Jul-18 13:32N 39°33' E 002°38'0 0.0
2014-Jul-18 12:32N 39°33' E 002°38'0 0.0
2014-Jul-18 11:28N 39°33' E 002°38'0 0.0
2014-Jul-18 10:31N 39°33' E 002°38'0 0.0
2014-Jul-18 09:33N 39°33' E 002°38'0 0.0
2014-Jul-18 08:33N 39°33' E 002°38'0 0.0
2014-Jul-18 07:32N 39°33' E 002°38'0 0.0
2014-Jul-18 06:32N 39°33' E 002°38'0 0.0
2014-Jul-18 05:32N 39°33' E 002°38'0 0.0
2014-Jul-18 04:31N 39°33' E 002°38'0 0.0
2014-Jul-18 03:31N 39°33' E 002°38'0 0.1
2014-Jul-18 02:33N 39°33' E 002°38'8 8.4
2014-Jul-18 01:33N 39°26' E 002°32'1212.3
2014-Jul-18 00:33N 39°32' E 002°18'1212.3
2014-Jul-17 23:34N 39°44' E 002°14'1313.4
2014-Jul-17 22:34N 39°57' E 002°13'1414.0
2014-Jul-17 21:33N 40°11' E 002°13'1514.6
2014-Jul-17 20:33N 40°26' E 002°12'1414.5
2014-Jul-17 19:33N 40°40' E 002°12'1414.4
2014-Jul-17 18:33N 40°55' E 002°11'1414.5
2014-Jul-17 17:33N 41°09' E 002°11'12 9.4
2014-Jul-17 16:15N 41°21' E 002°11'0 0.0
2014-Jul-17 15:33N 41°21' E 002°11'0 0.0
2014-Jul-17 14:33N 41°21' E 002°11'0 0.0
2014-Jul-17 13:26N 41°21' E 002°11'0 0.0
2014-Jul-17 12:32N 41°21' E 002°11'0 0.0
2014-Jul-17 11:31N 41°21' E 002°11'0 0.0
2014-Jul-17 10:31N 41°21' E 002°11'0 0.0
2014-Jul-17 09:24N 41°21' E 002°11'0 0.0
2014-Jul-17 08:18N 41°21' E 002°11'0 0.0
2014-Jul-17 05:32N 41°21' E 002°11'3 3.1
2014-Jul-17 04:33N 41°18' E 002°10'1211.5
2014-Jul-17 03:32N 41°18' E 002°26'9 9.1
2014-Jul-17 02:31N 41°19' E 002°38'5 4.6
2014-Jul-17 01:32N 41°19' E 002°44'7 6.9
2014-Jul-17 00:31N 41°20' E 002°54'6 6.6
2014-Jul-16 23:33N 41°21' E 003°02'6 6.3
2014-Jul-16 22:33N 41°22' E 003°10'7 6.9
2014-Jul-16 21:32N 41°22' E 003°20'7 6.7
2014-Jul-16 20:30N 41°23' E 003°29'7 6.8
2014-Jul-16 19:29N 41°24' E 003°38'13 6.5
2014-Jul-16 17:29N 41°25' E 003°55'6 6.1
2014-Jul-16 16:31N 41°26' E 004°03'5 5.6
2014-Jul-16 15:32N 41°27' E 004°10'6 6.1
2014-Jul-16 14:32N 41°27' E 004°18'6 6.5
2014-Jul-16 13:33N 41°28' E 004°27'7 6.0
2014-Jul-16 12:26N 41°29' E 004°36'5 5.4
2014-Jul-16 11:33N 41°29' E 004°42'5 4.8
2014-Jul-16 10:32N 41°30' E 004°48'5 5.1
2014-Jul-16 09:33N 41°31' E 004°55'6 5.6
2014-Jul-16 08:32N 41°31' E 005°03'6 5.8
2014-Jul-16 07:33N 41°32' E 005°10'5 5.4
2014-Jul-16 06:33N 41°33' E 005°17'6 5.7
2014-Jul-16 05:33N 41°33' E 005°25'1312.7
2014-Jul-16 04:33N 41°35' E 005°42'1313.4
2014-Jul-16 03:33N 41°36' E 005°60'1313.1
2014-Jul-16 02:33N 41°38' E 006°17'1313.2
2014-Jul-16 01:33N 41°39' E 006°35'1313.3
2014-Jul-16 00:33N 41°41' E 006°52'2713.3
2014-Jul-15 22:32N 41°44' E 007°28'1313.3
2014-Jul-15 21:33N 41°45' E 007°45'103 4.6
2014-Jul-14 23:09N 43°05' E 009°14'813.4
2014-Jul-14 22:33N 43°08' E 009°24'1313.2
2014-Jul-14 21:33N 43°14' E 009°41'1211.6
2014-Jul-14 20:33N 43°18' E 009°55'6 6.0
2014-Jul-14 19:33N 43°22' E 010°02'6 6.2
2014-Jul-14 18:33N 43°26' E 010°08'7 6.6
2014-Jul-14 17:33N 43°31' E 010°14'3 3.4
2014-Jul-14 16:32N 43°33' E 010°18'0 0.0
2014-Jul-14 05:09N 43°33' E 010°18'6 9.8
2014-Jul-14 04:33N 43°28' E 010°13'1312.7
2014-Jul-14 03:33N 43°16' E 010°09'1312.7
2014-Jul-14 02:33N 43°03' E 010°06'2711.2
2014-Jul-14 00:07N 42°37' E 010°14'  
Track history (hours):
 
Tides and Currents Weather Stations Pressure Air Temp Water Temp Dewpoint Dewpoint Depression Visibility Wind Speed Wind Dir Waves Ship Positions

Aidablu

Last reported at 2014-Jul-22 20:34 UTC. Time now 2014-Jul-23 11:58 UTC.
Position N 40°50' E 013°32'.

Length 252 m; draft 7.3 m.

Type: Ship. MMSI: 247282500.

Date/timePositionNaut miles runAvg speedWind from/ knotsBaromVisibWave heightAir tempDewpointWater temp
2014-Jul-22 20:34N 40°50' E 013°32'1614.4
2014-Jul-22 19:28N 40°41' E 013°48'1213.5
2014-Jul-22 18:34N 40°40' E 014°05'13 0.9
2014-Jul-22 04:33N 40°48' E 014°17'1313.2
2014-Jul-22 03:33N 40°36' E 014°10'1413.7
2014-Jul-22 02:33N 40°23' E 014°05'6113.6
2014-Jul-21 22:04N 39°24' E 013°47'3613.4
2014-Jul-21 19:24N 38°49' E 013°37'1213.5
2014-Jul-21 18:32N 38°37' E 013°34'1313.5
2014-Jul-21 17:34N 38°25' E 013°30'1413.7
2014-Jul-21 16:33N 38°11' E 013°26'5 4.7
2014-Jul-21 15:32N 38°08' E 013°22'0 0.0
2014-Jul-21 14:31N 38°08' E 013°22'0 0.0
2014-Jul-21 13:31N 38°08' E 013°22'0 0.0
2014-Jul-21 12:33N 38°08' E 013°22'0 0.0
2014-Jul-21 11:33N 38°08' E 013°22'0 0.0
2014-Jul-21 10:29N 38°08' E 013°22'0 0.0
2014-Jul-21 09:32N 38°08' E 013°22'0 0.0
2014-Jul-21 08:29N 38°08' E 013°22'0 0.0
2014-Jul-21 07:32N 38°08' E 013°22'0 0.0
2014-Jul-21 06:33N 38°08' E 013°22'6 6.4
2014-Jul-21 05:33N 38°14' E 013°23'6 6.5
2014-Jul-21 04:34N 38°18' E 013°16'5 4.7
2014-Jul-21 03:33N 38°17' E 013°10'5 5.2
2014-Jul-21 02:33N 38°17' E 013°04'1312.7
2014-Jul-21 01:33N 38°16' E 012°47'1313.0
2014-Jul-21 00:32N 38°13' E 012°31'1313.4
2014-Jul-20 23:33N 38°08' E 012°15'4613.4
2014-Jul-20 20:09N 37°42' E 011°28'57 3.0
2014-Jul-20 01:25N 37°26' E 010°20'1311.3
2014-Jul-20 00:13N 37°34' E 010°06'1313.1
2014-Jul-19 23:14N 37°37' E 009°50'5513.4
2014-Jul-19 19:10N 37°53' E 008°44'1013.8
2014-Jul-19 18:25N 37°56' E 008°32'5213.2
2014-Jul-19 14:31N 38°11' E 007°29'1412.9
2014-Jul-19 13:24N 38°15' E 007°12'1213.7
2014-Jul-19 12:33N 38°18' E 006°57'1414.1
2014-Jul-19 11:33N 38°22' E 006°40'1414.2
2014-Jul-19 10:33N 38°26' E 006°23'1414.1
2014-Jul-19 09:33N 38°30' E 006°06'1414.0
2014-Jul-19 08:33N 38°35' E 005°49'1413.7
2014-Jul-19 07:33N 38°39' E 005°32'1413.6
2014-Jul-19 06:33N 38°42' E 005°15'1313.4
2014-Jul-19 05:33N 38°46' E 004°59'1313.4
2014-Jul-19 04:33N 38°50' E 004°42'1313.4
2014-Jul-19 03:33N 38°54' E 004°26'1413.5
2014-Jul-19 02:33N 38°58' E 004°09'1413.6
2014-Jul-19 01:33N 39°02' E 003°52'1313.3
2014-Jul-19 00:33N 39°07' E 003°36'1312.7
2014-Jul-18 23:33N 39°10' E 003°20'1313.5
2014-Jul-18 22:33N 39°13' E 003°04'1413.8
2014-Jul-18 21:33N 39°19' E 002°47'1313.4
2014-Jul-18 20:33N 39°31' E 002°39'2 1.8
2014-Jul-18 19:26N 39°33' E 002°38'0 0.0
2014-Jul-18 18:31N 39°33' E 002°38'0 0.0
2014-Jul-18 17:31N 39°33' E 002°38'0 0.0
2014-Jul-18 16:33N 39°33' E 002°38'0 0.0
2014-Jul-18 15:33N 39°33' E 002°38'0 0.0
2014-Jul-18 14:33N 39°33' E 002°38'0 0.0
2014-Jul-18 13:32N 39°33' E 002°38'0 0.0
2014-Jul-18 12:32N 39°33' E 002°38'0 0.0
2014-Jul-18 11:28N 39°33' E 002°38'0 0.0
2014-Jul-18 10:31N 39°33' E 002°38'0 0.0
2014-Jul-18 09:33N 39°33' E 002°38'0 0.0
2014-Jul-18 08:33N 39°33' E 002°38'0 0.0
2014-Jul-18 07:32N 39°33' E 002°38'0 0.0
2014-Jul-18 06:32N 39°33' E 002°38'0 0.0
2014-Jul-18 05:32N 39°33' E 002°38'0 0.0
2014-Jul-18 04:31N 39°33' E 002°38'0 0.0
2014-Jul-18 03:31N 39°33' E 002°38'0 0.1
2014-Jul-18 02:33N 39°33' E 002°38'8 8.4
2014-Jul-18 01:33N 39°26' E 002°32'1212.3
2014-Jul-18 00:33N 39°32' E 002°18'1212.3
2014-Jul-17 23:34N 39°44' E 002°14'1313.4
2014-Jul-17 22:34N 39°57' E 002°13'1414.0
2014-Jul-17 21:33N 40°11' E 002°13'1514.6
2014-Jul-17 20:33N 40°26' E 002°12'1414.5
2014-Jul-17 19:33N 40°40' E 002°12'1414.4
2014-Jul-17 18:33N 40°55' E 002°11'1414.5
2014-Jul-17 17:33N 41°09' E 002°11'12 9.4
2014-Jul-17 16:15N 41°21' E 002°11'0 0.0
2014-Jul-17 15:33N 41°21' E 002°11'0 0.0
2014-Jul-17 14:33N 41°21' E 002°11'0 0.0
2014-Jul-17 13:26N 41°21' E 002°11'0 0.0
2014-Jul-17 12:32N 41°21' E 002°11'0 0.0
2014-Jul-17 11:31N 41°21' E 002°11'0 0.0
2014-Jul-17 10:31N 41°21' E 002°11'0 0.0
2014-Jul-17 09:24N 41°21' E 002°11'0 0.0
2014-Jul-17 08:18N 41°21' E 002°11'0 0.0
2014-Jul-17 05:32N 41°21' E 002°11'3 3.1
2014-Jul-17 04:33N 41°18' E 002°10'1211.5
2014-Jul-17 03:32N 41°18' E 002°26'9 9.1
2014-Jul-17 02:31N 41°19' E 002°38'5 4.6
2014-Jul-17 01:32N 41°19' E 002°44'7 6.9
2014-Jul-17 00:31N 41°20' E 002°54'6 6.6
2014-Jul-16 23:33N 41°21' E 003°02'6 6.3
2014-Jul-16 22:33N 41°22' E 003°10'7 6.9
2014-Jul-16 21:32N 41°22' E 003°20'7 6.7
2014-Jul-16 20:30N 41°23' E 003°29'7 6.8
2014-Jul-16 19:29N 41°24' E 003°38'13 6.5
2014-Jul-16 17:29N 41°25' E 003°55'6 6.1
2014-Jul-16 16:31N 41°26' E 004°03'5 5.6
2014-Jul-16 15:32N 41°27' E 004°10'6 6.1
2014-Jul-16 14:32N 41°27' E 004°18'6 6.5
2014-Jul-16 13:33N 41°28' E 004°27'7 6.0
2014-Jul-16 12:26N 41°29' E 004°36'5 5.4
2014-Jul-16 11:33N 41°29' E 004°42'5 4.8
2014-Jul-16 10:32N 41°30' E 004°48'5 5.1
2014-Jul-16 09:33N 41°31' E 004°55'6 5.6
2014-Jul-16 08:32N 41°31' E 005°03'6 5.8
2014-Jul-16 07:33N 41°32' E 005°10'5 5.4
2014-Jul-16 06:33N 41°33' E 005°17'6 5.7
2014-Jul-16 05:33N 41°33' E 005°25'1312.7
2014-Jul-16 04:33N 41°35' E 005°42'1313.4
2014-Jul-16 03:33N 41°36' E 005°60'1313.1
2014-Jul-16 02:33N 41°38' E 006°17'1313.2
2014-Jul-16 01:33N 41°39' E 006°35'1313.3
2014-Jul-16 00:33N 41°41' E 006°52'2713.3
2014-Jul-15 22:32N 41°44' E 007°28'1313.3
2014-Jul-15 21:33N 41°45' E 007°45'103 4.6
2014-Jul-14 23:09N 43°05' E 009°14'813.4
2014-Jul-14 22:33N 43°08' E 009°24'1313.2
2014-Jul-14 21:33N 43°14' E 009°41'1211.6
2014-Jul-14 20:33N 43°18' E 009°55'6 6.0
2014-Jul-14 19:33N 43°22' E 010°02'6 6.2
2014-Jul-14 18:33N 43°26' E 010°08'7 6.6
2014-Jul-14 17:33N 43°31' E 010°14'3 3.4
2014-Jul-14 16:32N 43°33' E 010°18'0 0.0
2014-Jul-14 05:09N 43°33' E 010°18'6 9.8
2014-Jul-14 04:33N 43°28' E 010°13'1312.7
2014-Jul-14 03:33N 43°16' E 010°09'1312.7
2014-Jul-14 02:33N 43°03' E 010°06'2711.2
2014-Jul-14 00:07N 42°37' E 010°14'  

Dump ship's entire track history